sensor_id;sensor_type;location;lat;lon;timestamp;pressure;altitude;pressure_sealevel;temperature;humidity
75447;BME280;64024;55.820;37.574;2023-06-10T00:02:07;99249.47;;;22.14;33.43
75447;BME280;64024;55.820;37.574;2023-06-10T00:04:33;99239.19;;;22.11;33.18
75447;BME280;64024;55.820;37.574;2023-06-10T00:06:59;99245.97;;;22.08;33.46
75447;BME280;64024;55.820;37.574;2023-06-10T00:09:25;99243.56;;;22.07;33.39
75447;BME280;64024;55.820;37.574;2023-06-10T00:11:51;99248.19;;;22.06;33.52
75447;BME280;64024;55.820;37.574;2023-06-10T00:14:16;99249.25;;;22.05;33.40
75447;BME280;64024;55.820;37.574;2023-06-10T00:16:42;99251.44;;;22.03;33.51
75447;BME280;64024;55.820;37.574;2023-06-10T00:19:11;99245.50;;;22.01;33.55
75447;BME280;64024;55.820;37.574;2023-06-10T00:21:39;99256.59;;;22.00;33.45
75447;BME280;64024;55.820;37.574;2023-06-10T00:24:10;99257.69;;;21.99;33.66
75447;BME280;64024;55.820;37.574;2023-06-10T00:26:38;99264.19;;;21.98;33.50
75447;BME280;64024;55.820;37.574;2023-06-10T00:29:05;99260.97;;;21.96;33.58
75447;BME280;64024;55.820;37.574;2023-06-10T00:31:30;99270.19;;;21.95;33.58
75447;BME280;64024;55.820;37.574;2023-06-10T00:33:56;99269.63;;;21.93;33.65
75447;BME280;64024;55.820;37.574;2023-06-10T00:36:22;99273.44;;;21.92;33.70
75447;BME280;64024;55.820;37.574;2023-06-10T00:38:47;99281.84;;;21.90;33.65
75447;BME280;64024;55.820;37.574;2023-06-10T00:41:14;99278.59;;;21.88;33.49
75447;BME280;64024;55.820;37.574;2023-06-10T00:43:39;99283.22;;;21.88;33.87
75447;BME280;64024;55.820;37.574;2023-06-10T00:46:05;99289.97;;;21.85;33.84
75447;BME280;64024;55.820;37.574;2023-06-10T00:48:32;99288.91;;;21.86;33.87
75447;BME280;64024;55.820;37.574;2023-06-10T00:50:58;99286.47;;;21.84;33.99
75447;BME280;64024;55.820;37.574;2023-06-10T00:53:25;99287.56;;;21.83;33.91
75447;BME280;64024;55.820;37.574;2023-06-10T00:55:51;99288.38;;;21.84;33.98
75447;BME280;64024;55.820;37.574;2023-06-10T00:58:17;99294.88;;;21.83;34.08
75447;BME280;64024;55.820;37.574;2023-06-10T01:00:43;99296.78;;;21.82;34.00
75447;BME280;64024;55.820;37.574;2023-06-10T01:03:10;99309.72;;;21.91;33.97
75447;BME280;64024;55.820;37.574;2023-06-10T01:05:38;99309.75;;;21.86;33.82
75447;BME280;64024;55.820;37.574;2023-06-10T01:08:12;99299.50;;;21.82;34.06
75447;BME280;64024;55.820;37.574;2023-06-10T01:10:51;99304.09;;;21.82;34.07
75447;BME280;64024;55.820;37.574;2023-06-10T01:13:20;99309.22;;;21.83;34.13
75447;BME280;64024;55.820;37.574;2023-06-10T01:15:50;99328.16;;;21.83;34.25
75447;BME280;64024;55.820;37.574;2023-06-10T01:18:17;99326.00;;;21.86;34.22
75447;BME280;64024;55.820;37.574;2023-06-10T01:20:43;99320.28;;;21.87;34.18
75447;BME280;64024;55.820;37.574;2023-06-10T01:23:10;99335.13;;;21.90;34.38
75447;BME280;64024;55.820;37.574;2023-06-10T01:25:59;99334.31;;;21.94;34.44
75447;BME280;64024;55.820;37.574;2023-06-10T01:28:33;99327.53;;;21.97;34.41
75447;BME280;64024;55.820;37.574;2023-06-10T01:34:00;99340.47;;;22.05;34.49
75447;BME280;64024;55.820;37.574;2023-06-10T01:36:28;99344.50;;;22.07;34.43
75447;BME280;64024;55.820;37.574;2023-06-10T01:38:55;99347.47;;;22.11;34.62
75447;BME280;64024;55.820;37.574;2023-06-10T01:41:20;99345.84;;;22.15;34.56
75447;BME280;64024;55.820;37.574;2023-06-10T01:43:47;99337.69;;;22.20;34.48
75447;BME280;64024;55.820;37.574;2023-06-10T01:46:13;99339.00;;;22.23;34.40
75447;BME280;64024;55.820;37.574;2023-06-10T01:48:41;99348.19;;;22.27;34.79
75447;BME280;64024;55.820;37.574;2023-06-10T01:51:07;99350.88;;;22.32;34.42
75447;BME280;64024;55.820;37.574;2023-06-10T01:53:33;99348.41;;;22.36;34.61
75447;BME280;64024;55.820;37.574;2023-06-10T01:55:59;99358.38;;;22.40;34.38
75447;BME280;64024;55.820;37.574;2023-06-10T01:58:25;99365.38;;;22.46;34.44
75447;BME280;64024;55.820;37.574;2023-06-10T02:00:51;99361.00;;;22.50;34.27
75447;BME280;64024;55.820;37.574;2023-06-10T02:03:16;99358.25;;;22.55;34.34
75447;BME280;64024;55.820;37.574;2023-06-10T02:05:42;99367.72;;;22.58;34.14
75447;BME280;64024;55.820;37.574;2023-06-10T02:08:08;99366.06;;;22.62;34.25
75447;BME280;64024;55.820;37.574;2023-06-10T02:10:33;99359.28;;;22.65;34.18
75447;BME280;64024;55.820;37.574;2023-06-10T02:12:59;99364.09;;;22.68;33.98
75447;BME280;64024;55.820;37.574;2023-06-10T02:15:25;99366.25;;;22.71;34.17
75447;BME280;64024;55.820;37.574;2023-06-10T02:17:52;99361.06;;;22.74;34.00
75447;BME280;64024;55.820;37.574;2023-06-10T02:20:17;99366.72;;;22.78;33.95
75447;BME280;64024;55.820;37.574;2023-06-10T02:22:43;99359.91;;;22.80;34.02
75447;BME280;64024;55.820;37.574;2023-06-10T02:25:09;99369.09;;;22.84;33.94
75447;BME280;64024;55.820;37.574;2023-06-10T02:27:35;99370.44;;;22.87;33.67
75447;BME280;64024;55.820;37.574;2023-06-10T02:30:01;99366.09;;;22.91;33.94
75447;BME280;64024;55.820;37.574;2023-06-10T02:32:27;99368.22;;;22.94;33.56
75447;BME280;64024;55.820;37.574;2023-06-10T02:34:53;99367.38;;;22.99;33.51
75447;BME280;64024;55.820;37.574;2023-06-10T02:37:19;99366.50;;;23.03;33.42
75447;BME280;64024;55.820;37.574;2023-06-10T02:39:45;99372.97;;;23.07;33.31
75447;BME280;64024;55.820;37.574;2023-06-10T02:42:11;99379.44;;;23.12;33.31
75447;BME280;64024;55.820;37.574;2023-06-10T02:44:37;99383.19;;;23.16;33.03
75447;BME280;64024;55.820;37.574;2023-06-10T02:47:03;99380.97;;;23.18;32.84
75447;BME280;64024;55.820;37.574;2023-06-10T02:49:29;99382.63;;;23.19;32.70
75447;BME280;64024;55.820;37.574;2023-06-10T02:51:55;99382.81;;;23.22;32.70
75447;BME280;64024;55.820;37.574;2023-06-10T02:54:23;99386.88;;;23.25;32.59
75447;BME280;64024;55.820;37.574;2023-06-10T02:56:49;99387.13;;;23.28;32.52
75447;BME280;64024;55.820;37.574;2023-06-10T02:59:15;99385.44;;;23.32;32.62
75447;BME280;64024;55.820;37.574;2023-06-10T03:01:42;99385.69;;;23.36;32.09
75447;BME280;64024;55.820;37.574;2023-06-10T03:04:07;99381.56;;;23.39;32.27
75447;BME280;64024;55.820;37.574;2023-06-10T03:06:34;99387.22;;;23.42;32.08
75447;BME280;64024;55.820;37.574;2023-06-10T03:09:01;99388.25;;;23.46;32.08
75447;BME280;64024;55.820;37.574;2023-06-10T03:11:26;99384.97;;;23.49;31.87
75447;BME280;64024;55.820;37.574;2023-06-10T03:13:53;99386.81;;;23.54;31.92
75447;BME280;64024;55.820;37.574;2023-06-10T03:16:19;99388.03;;;23.67;32.25
75447;BME280;64024;55.820;37.574;2023-06-10T03:18:45;99389.97;;;23.66;32.06
75447;BME280;64024;55.820;37.574;2023-06-10T03:21:11;99385.06;;;23.68;31.73
75447;BME280;64024;55.820;37.574;2023-06-10T03:23:37;99389.38;;;23.69;31.76
75447;BME280;64024;55.820;37.574;2023-06-10T03:26:03;99392.31;;;23.73;32.16
75447;BME280;64024;55.820;37.574;2023-06-10T03:28:30;99393.50;;;23.86;31.78
75447;BME280;64024;55.820;37.574;2023-06-10T03:30:56;99397.03;;;23.86;31.87
75447;BME280;64024;55.820;37.574;2023-06-10T03:33:22;99398.94;;;23.86;31.94
75447;BME280;64024;55.820;37.574;2023-06-10T03:35:48;99405.69;;;23.88;32.00
75447;BME280;64024;55.820;37.574;2023-06-10T03:38:13;99404.31;;;23.91;31.79
75447;BME280;64024;55.820;37.574;2023-06-10T03:40:39;99401.28;;;23.92;31.70
75447;BME280;64024;55.820;37.574;2023-06-10T03:43:05;99402.63;;;23.95;31.71
75447;BME280;64024;55.820;37.574;2023-06-10T03:45:31;99407.47;;;23.98;31.36
75447;BME280;64024;55.820;37.574;2023-06-10T03:47:57;99403.34;;;24.00;31.25
75447;BME280;64024;55.820;37.574;2023-06-10T03:50:23;99407.69;;;24.01;31.05
75447;BME280;64024;55.820;37.574;2023-06-10T03:52:50;99398.44;;;24.02;31.00
75447;BME280;64024;55.820;37.574;2023-06-10T03:55:16;99406.00;;;24.05;31.21
75447;BME280;64024;55.820;37.574;2023-06-10T03:57:43;99411.13;;;24.07;31.19
75447;BME280;64024;55.820;37.574;2023-06-10T04:00:09;99405.94;;;24.11;31.06
75447;BME280;64024;55.820;37.574;2023-06-10T04:02:38;99400.72;;;24.14;30.95
75447;BME280;64024;55.820;37.574;2023-06-10T04:05:16;99415.34;;;24.18;31.08
75447;BME280;64024;55.820;37.574;2023-06-10T04:07:41;99409.44;;;24.30;31.27
75447;BME280;64024;55.820;37.574;2023-06-10T04:10:08;99414.06;;;24.29;31.02
75447;BME280;64024;55.820;37.574;2023-06-10T04:12:35;99426.84;;;24.29;30.86
75447;BME280;64024;55.820;37.574;2023-06-10T04:15:02;99419.22;;;24.31;30.81
75447;BME280;64024;55.820;37.574;2023-06-10T04:17:28;99416.19;;;24.33;30.59
75447;BME280;64024;55.820;37.574;2023-06-10T04:19:53;99406.66;;;24.35;30.26
75447;BME280;64024;55.820;37.574;2023-06-10T04:22:20;99413.44;;;24.38;30.21
75447;BME280;64024;55.820;37.574;2023-06-10T04:24:46;99417.47;;;24.40;29.82
75447;BME280;64024;55.820;37.574;2023-06-10T04:27:12;99424.75;;;24.45;29.93
75447;BME280;64024;55.820;37.574;2023-06-10T04:29:37;99420.03;;;24.50;29.96
75447;BME280;64024;55.820;37.574;2023-06-10T04:32:03;99418.56;;;24.58;29.57
75447;BME280;64024;55.820;37.574;2023-06-10T04:34:30;99421.41;;;24.67;29.36
75447;BME280;64024;55.820;37.574;2023-06-10T04:36:56;99425.06;;;24.76;29.24
75447;BME280;64024;55.820;37.574;2023-06-10T04:39:22;99426.00;;;24.85;29.27
75447;BME280;64024;55.820;37.574;2023-06-10T04:41:48;99432.38;;;24.94;29.29
75447;BME280;64024;55.820;37.574;2023-06-10T04:44:13;99427.56;;;25.05;28.73
75447;BME280;64024;55.820;37.574;2023-06-10T04:46:39;99437.16;;;25.16;28.71
75447;BME280;64024;55.820;37.574;2023-06-10T04:49:05;99436.19;;;25.26;28.37
75447;BME280;64024;55.820;37.574;2023-06-10T04:51:31;99435.19;;;25.36;28.35
75447;BME280;64024;55.820;37.574;2023-06-10T04:53:59;99447.50;;;25.47;28.14
75447;BME280;64024;55.820;37.574;2023-06-10T04:56:29;99442.66;;;25.58;27.73
75447;BME280;64024;55.820;37.574;2023-06-10T04:58:59;99454.16;;;25.68;27.74
75447;BME280;64024;55.820;37.574;2023-06-10T05:01:25;99440.34;;;25.78;27.55
75447;BME280;64024;55.820;37.574;2023-06-10T05:03:50;99444.28;;;25.86;27.42
75447;BME280;64024;55.820;37.574;2023-06-10T05:06:16;99454.25;;;25.91;27.47
75447;BME280;64024;55.820;37.574;2023-06-10T05:08:42;99449.63;;;25.91;27.23
75447;BME280;64024;55.820;37.574;2023-06-10T05:11:07;99462.75;;;25.89;27.26
75447;BME280;64024;55.820;37.574;2023-06-10T05:13:34;99457.69;;;25.83;27.07
75447;BME280;64024;55.820;37.574;2023-06-10T05:15:59;99435.50;;;25.75;27.07
75447;BME280;64024;55.820;37.574;2023-06-10T05:18:25;99453.63;;;25.66;27.24
75447;BME280;64024;55.820;37.574;2023-06-10T05:20:52;99457.06;;;25.58;27.40
75447;BME280;64024;55.820;37.574;2023-06-10T05:23:19;99452.31;;;25.50;27.23
75447;BME280;64024;55.820;37.574;2023-06-10T05:25:45;99472.91;;;25.42;27.30
75447;BME280;64024;55.820;37.574;2023-06-10T05:28:11;99465.72;;;25.33;27.40
75447;BME280;64024;55.820;37.574;2023-06-10T05:30:37;99452.00;;;25.24;27.36
75447;BME280;64024;55.820;37.574;2023-06-10T05:33:03;99471.72;;;25.16;27.47
75447;BME280;64024;55.820;37.574;2023-06-10T05:35:29;99472.94;;;25.10;27.72
75447;BME280;64024;55.820;37.574;2023-06-10T05:37:55;99459.69;;;25.03;27.75
75447;BME280;64024;55.820;37.574;2023-06-10T05:40:21;99462.19;;;24.99;27.75
75447;BME280;64024;55.820;37.574;2023-06-10T05:42:47;99482.13;;;24.95;27.85
75447;BME280;64024;55.820;37.574;2023-06-10T05:45:12;99472.63;;;24.92;27.84
75447;BME280;64024;55.820;37.574;2023-06-10T05:47:38;99462.88;;;24.91;27.87
75447;BME280;64024;55.820;37.574;2023-06-10T05:50:04;99470.22;;;24.91;28.04
75447;BME280;64024;55.820;37.574;2023-06-10T05:52:34;99481.09;;;24.91;28.28
75447;BME280;64024;55.820;37.574;2023-06-10T05:55:01;99481.41;;;24.89;28.14
75447;BME280;64024;55.820;37.574;2023-06-10T05:57:26;99483.59;;;24.87;27.87
75447;BME280;64024;55.820;37.574;2023-06-10T05:59:52;99490.13;;;24.86;28.23
75447;BME280;64024;55.820;37.574;2023-06-10T06:02:17;99481.19;;;24.86;28.40
75447;BME280;64024;55.820;37.574;2023-06-10T06:04:43;99484.69;;;24.86;28.08
75447;BME280;64024;55.820;37.574;2023-06-10T06:07:09;99484.69;;;24.86;28.26
75447;BME280;64024;55.820;37.574;2023-06-10T06:09:35;99489.03;;;24.87;28.36
75447;BME280;64024;55.820;37.574;2023-06-10T06:12:01;99481.19;;;24.86;28.08
75447;BME280;64024;55.820;37.574;2023-06-10T06:14:30;99476.31;;;24.83;28.25
75447;BME280;64024;55.820;37.574;2023-06-10T06:16:57;99478.81;;;24.79;28.23
75447;BME280;64024;55.820;37.574;2023-06-10T06:19:23;99481.63;;;24.74;28.38
75447;BME280;64024;55.820;37.574;2023-06-10T06:21:48;99490.69;;;24.69;28.38
75447;BME280;64024;55.820;37.574;2023-06-10T06:24:15;99488.25;;;24.68;28.27
75447;BME280;64024;55.820;37.574;2023-06-10T06:26:41;99485.81;;;24.66;28.39
75447;BME280;64024;55.820;37.574;2023-06-10T06:29:07;99492.66;;;24.64;28.58
75447;BME280;64024;55.820;37.574;2023-06-10T06:31:33;99487.81;;;24.61;28.72
75447;BME280;64024;55.820;37.574;2023-06-10T06:33:58;99487.59;;;24.57;28.77
75447;BME280;64024;55.820;37.574;2023-06-10T06:36:24;99487.38;;;24.53;28.44
75447;BME280;64024;55.820;37.574;2023-06-10T06:38:50;99474.38;;;24.50;28.47
75447;BME280;64024;55.820;37.574;2023-06-10T06:41:15;99482.00;;;24.48;28.81
75447;BME280;64024;55.820;37.574;2023-06-10T06:43:41;99486.13;;;24.46;28.53
75447;BME280;64024;55.820;37.574;2023-06-10T06:46:08;99490.25;;;24.43;28.62
75447;BME280;64024;55.820;37.574;2023-06-10T06:48:34;99487.00;;;24.41;28.66
75447;BME280;64024;55.820;37.574;2023-06-10T06:50:59;99489.50;;;24.38;28.90
75447;BME280;64024;55.820;37.574;2023-06-10T06:53:25;99491.94;;;24.34;29.16
75447;BME280;64024;55.820;37.574;2023-06-10T06:55:50;99509.94;;;24.30;28.95
75447;BME280;64024;55.820;37.574;2023-06-10T06:58:16;99513.25;;;24.27;28.82
75447;BME280;64024;55.820;37.574;2023-06-10T07:00:42;99499.94;;;24.25;28.43
75447;BME280;64024;55.820;37.574;2023-06-10T07:03:07;99523.59;;;24.25;28.82
75447;BME280;64024;55.820;37.574;2023-06-10T07:05:33;99520.38;;;24.23;28.43
75447;BME280;64024;55.820;37.574;2023-06-10T07:07:59;99498.91;;;24.21;28.68
75447;BME280;64024;55.820;37.574;2023-06-10T07:10:25;99523.97;;;24.18;28.58
75447;BME280;64024;55.820;37.574;2023-06-10T07:12:52;99518.31;;;24.15;28.38
75447;BME280;64024;55.820;37.574;2023-06-10T07:15:18;99538.44;;;24.09;28.16
75447;BME280;64024;55.820;37.574;2023-06-10T07:17:44;99537.47;;;23.99;27.88
75447;BME280;64024;55.820;37.574;2023-06-10T07:20:10;99524.31;;;23.88;28.05
75447;BME280;64024;55.820;37.574;2023-06-10T07:22:36;99546.41;;;23.76;28.33
75447;BME280;64024;55.820;37.574;2023-06-10T07:25:04;99526.44;;;23.67;28.05
75447;BME280;64024;55.820;37.574;2023-06-10T07:27:31;99534.59;;;23.62;28.13
75447;BME280;64024;55.820;37.574;2023-06-10T07:29:56;99541.16;;;23.55;28.10
75447;BME280;64024;55.820;37.574;2023-06-10T07:32:22;99532.56;;;23.48;28.30
75447;BME280;64024;55.820;37.574;2023-06-10T07:34:49;99550.50;;;23.44;28.30
75447;BME280;64024;55.820;37.574;2023-06-10T07:37:15;99562.22;;;23.40;28.49
75447;BME280;64024;55.820;37.574;2023-06-10T07:39:41;99538.66;;;23.35;28.42
75447;BME280;64024;55.820;37.574;2023-06-10T07:42:07;99541.13;;;23.31;28.49
75447;BME280;64024;55.820;37.574;2023-06-10T07:44:33;99524.63;;;23.28;28.79
75447;BME280;64024;55.820;37.574;2023-06-10T07:46:58;99536.56;;;23.27;28.91
75447;BME280;64024;55.820;37.574;2023-06-10T07:49:24;99549.59;;;23.25;28.66
75447;BME280;64024;55.820;37.574;2023-06-10T07:51:50;99558.00;;;23.23;28.70
75447;BME280;64024;55.820;37.574;2023-06-10T07:54:16;99542.31;;;23.20;28.57
75447;BME280;64024;55.820;37.574;2023-06-10T07:56:41;99568.38;;;23.16;28.57
75447;BME280;64024;55.820;37.574;2023-06-10T07:59:07;99567.31;;;23.12;28.26
75447;BME280;64024;55.820;37.574;2023-06-10T08:01:33;99563.03;;;23.06;27.95
75447;BME280;64024;55.820;37.574;2023-06-10T08:04:01;99572.81;;;23.02;27.52
75447;BME280;64024;55.820;37.574;2023-06-10T08:06:26;99570.13;;;22.97;27.06
75447;BME280;64024;55.820;37.574;2023-06-10T08:08:52;99571.78;;;22.93;26.96
75447;BME280;64024;55.820;37.574;2023-06-10T08:11:18;99579.38;;;22.91;26.96
75447;BME280;64024;55.820;37.574;2023-06-10T08:13:44;99562.56;;;22.89;26.81
75447;BME280;64024;55.820;37.574;2023-06-10T08:16:09;99565.84;;;22.86;26.56
75447;BME280;64024;55.820;37.574;2023-06-10T08:18:35;99565.59;;;22.82;26.63
75447;BME280;64024;55.820;37.574;2023-06-10T08:21:01;99587.81;;;22.79;26.80
75447;BME280;64024;55.820;37.574;2023-06-10T08:23:26;99573.47;;;22.78;26.77
75447;BME280;64024;55.820;37.574;2023-06-10T08:25:52;99580.25;;;22.76;26.64
75447;BME280;64024;55.820;37.574;2023-06-10T08:28:18;99579.19;;;22.77;26.99
75447;BME280;64024;55.820;37.574;2023-06-10T08:30:44;99586.22;;;22.78;27.15
75447;BME280;64024;55.820;37.574;2023-06-10T08:33:09;99569.97;;;22.78;27.21
75447;BME280;64024;55.820;37.574;2023-06-10T08:35:38;99584.31;;;22.78;26.98
75447;BME280;64024;55.820;37.574;2023-06-10T08:38:04;99580.50;;;22.79;27.24
75447;BME280;64024;55.820;37.574;2023-06-10T08:40:29;99569.41;;;22.81;27.13
75447;BME280;64024;55.820;37.574;2023-06-10T08:43:10;99576.16;;;22.83;27.49
75447;BME280;64024;55.820;37.574;2023-06-10T08:45:42;99583.47;;;22.83;27.30
75447;BME280;64024;55.820;37.574;2023-06-10T08:48:10;99578.84;;;22.83;27.35
75447;BME280;64024;55.820;37.574;2023-06-10T08:50:37;99579.41;;;22.86;27.64
75447;BME280;64024;55.820;37.574;2023-06-10T08:53:05;99586.72;;;22.90;27.56
75447;BME280;64024;55.820;37.574;2023-06-10T08:55:35;99598.31;;;22.96;27.29
75447;BME280;64024;55.820;37.574;2023-06-10T08:58:02;99581.25;;;22.95;27.26
75447;BME280;64024;55.820;37.574;2023-06-10T09:00:30;99571.50;;;22.94;26.93
75447;BME280;64024;55.820;37.574;2023-06-10T09:02:57;99584.78;;;22.96;27.25
75447;BME280;64024;55.820;37.574;2023-06-10T09:05:24;99600.75;;;22.97;26.93
75447;BME280;64024;55.820;37.574;2023-06-10T09:07:51;99598.03;;;22.97;26.71
75447;BME280;64024;55.820;37.574;2023-06-10T09:10:17;99596.41;;;22.96;27.01
75447;BME280;64024;55.820;37.574;2023-06-10T09:12:43;99589.09;;;22.97;26.66
75447;BME280;64024;55.820;37.574;2023-06-10T09:15:09;99611.06;;;22.95;26.57
75447;BME280;64024;55.820;37.574;2023-06-10T09:17:38;99597.56;;;22.90;26.42
75447;BME280;64024;55.820;37.574;2023-06-10T09:20:09;99597.03;;;22.83;26.44
75447;BME280;64024;55.820;37.574;2023-06-10T09:22:34;99602.50;;;22.73;26.17
75447;BME280;64024;55.820;37.574;2023-06-10T09:25:07;99592.50;;;22.63;26.17
75447;BME280;64024;55.820;37.574;2023-06-10T09:27:47;99602.03;;;22.61;26.76
75447;BME280;64024;55.820;37.574;2023-06-10T09:30:28;99583.88;;;22.61;26.73
75447;BME280;64024;55.820;37.574;2023-06-10T09:32:55;99596.59;;;22.61;26.87
75447;BME280;64024;55.820;37.574;2023-06-10T09:35:22;99590.34;;;22.60;26.70
75447;BME280;64024;55.820;37.574;2023-06-10T09:37:51;99593.34;;;22.58;26.64
75447;BME280;64024;55.820;37.574;2023-06-10T09:40:17;99583.88;;;22.61;26.73
75447;BME280;64024;55.820;37.574;2023-06-10T09:42:42;99595.22;;;22.63;26.50
75447;BME280;64024;55.820;37.574;2023-06-10T09:45:08;99592.53;;;22.58;26.35
75447;BME280;64024;55.820;37.574;2023-06-10T09:47:34;99619.38;;;22.54;26.56
75447;BME280;64024;55.820;37.574;2023-06-10T09:50:00;99605.56;;;22.51;26.68
75447;BME280;64024;55.820;37.574;2023-06-10T09:52:27;99615.31;;;22.57;26.60
75447;BME280;64024;55.820;37.574;2023-06-10T09:54:54;99598.03;;;22.48;26.69
75447;BME280;64024;55.820;37.574;2023-06-10T09:57:24;99601.00;;;22.46;26.75
75447;BME280;64024;55.820;37.574;2023-06-10T09:59:53;99604.78;;;22.45;26.55
75447;BME280;64024;55.820;37.574;2023-06-10T10:02:19;99594.47;;;22.47;26.88
75447;BME280;64024;55.820;37.574;2023-06-10T10:04:45;99609.38;;;22.50;26.74
75447;BME280;64024;55.820;37.574;2023-06-10T10:07:12;99609.66;;;22.48;26.42
75447;BME280;64024;55.820;37.574;2023-06-10T10:09:39;99607.78;;;22.44;26.29
75447;BME280;64024;55.820;37.574;2023-06-10T10:12:13;99592.09;;;22.41;26.04
75447;BME280;64024;55.820;37.574;2023-06-10T10:14:45;99608.59;;;22.39;26.22
75447;BME280;64024;55.820;37.574;2023-06-10T10:17:11;99609.16;;;22.36;26.12
75447;BME280;64024;55.820;37.574;2023-06-10T10:19:46;99636.53;;;22.29;25.92
75447;BME280;64024;55.820;37.574;2023-06-10T10:22:25;99630.34;;;22.19;26.04
75447;BME280;64024;55.820;37.574;2023-06-10T10:25:02;99622.22;;;22.08;25.88
75447;BME280;64024;55.820;37.574;2023-06-10T10:27:37;99618.44;;;21.99;26.06
75447;BME280;64024;55.820;37.574;2023-06-10T10:30:07;99611.41;;;21.98;26.27
75447;BME280;64024;55.820;37.574;2023-06-10T10:32:40;99604.91;;;21.99;26.34
75447;BME280;64024;55.820;37.574;2023-06-10T10:35:13;99611.94;;;22.00;26.26
75447;BME280;64024;55.820;37.574;2023-06-10T10:37:42;99624.13;;;21.98;26.04
75447;BME280;64024;55.820;37.574;2023-06-10T10:40:08;99619.53;;;21.93;25.90
75447;BME280;64024;55.820;37.574;2023-06-10T10:42:35;99605.72;;;22.00;25.80
75447;BME280;64024;55.820;37.574;2023-06-10T10:45:02;99600.03;;;21.96;26.05
75447;BME280;64024;55.820;37.574;2023-06-10T10:47:30;99604.91;;;21.99;26.48
75447;BME280;64024;55.820;37.574;2023-06-10T10:49:56;99590.28;;;22.05;26.74
75447;BME280;64024;55.820;37.574;2023-06-10T10:52:27;99592.44;;;22.14;26.88
75447;BME280;64024;55.820;37.574;2023-06-10T10:54:53;99591.06;;;22.21;26.72
75447;BME280;64024;55.820;37.574;2023-06-10T10:57:22;99579.41;;;22.26;26.53
75447;BME280;64024;55.820;37.574;2023-06-10T11:02:36;99588.84;;;22.39;26.85
75447;BME280;64024;55.820;37.574;2023-06-10T11:05:05;99605.31;;;22.47;26.79
75447;BME280;64024;55.820;37.574;2023-06-10T11:07:31;99602.28;;;22.59;26.73
75447;BME280;64024;55.820;37.574;2023-06-10T11:10:07;99620.19;;;22.55;26.28
75447;BME280;64024;55.820;37.574;2023-06-10T11:12:54;99596.38;;;22.52;26.00
75447;BME280;64024;55.820;37.574;2023-06-10T11:15:22;99592.31;;;22.49;26.29
75447;BME280;64024;55.820;37.574;2023-06-10T11:21:02;99592.28;;;22.54;25.85
75447;BME280;64024;55.820;37.574;2023-06-10T11:31:23;99619.94;;;22.56;25.58
75447;BME280;64024;55.820;37.574;2023-06-10T11:33:53;99605.88;;;22.49;25.56
75447;BME280;64024;55.820;37.574;2023-06-10T11:36:19;99639.47;;;22.38;25.43
75447;BME280;64024;55.820;37.574;2023-06-10T11:38:45;99616.78;;;22.29;25.42
75447;BME280;64024;55.820;37.574;2023-06-10T11:41:11;99621.94;;;22.20;25.32
75447;BME280;64024;55.820;37.574;2023-06-10T11:43:45;99626.81;;;22.13;25.60
75447;BME280;64024;55.820;37.574;2023-06-10T11:46:14;99624.41;;;22.06;25.46
75447;BME280;64024;55.820;37.574;2023-06-10T11:48:51;99615.72;;;22.04;25.11
75447;BME280;64024;55.820;37.574;2023-06-10T11:51:17;99608.41;;;22.05;25.55
75447;BME280;64024;55.820;37.574;2023-06-10T11:53:50;99600.03;;;22.06;25.54
75447;BME280;64024;55.820;37.574;2023-06-10T11:56:26;99617.91;;;22.13;25.29
75447;BME280;64024;55.820;37.574;2023-06-10T11:58:57;99617.91;;;22.13;25.30
75447;BME280;64024;55.820;37.574;2023-06-10T12:01:25;99611.09;;;22.10;25.18
75447;BME280;64024;55.820;37.574;2023-06-10T12:04:11;99603.53;;;22.12;24.78
75447;BME280;64024;55.820;37.574;2023-06-10T12:09:06;99654.41;;;22.10;25.06
75447;BME280;64024;55.820;37.574;2023-06-10T12:11:33;99645.75;;;22.08;25.29
75447;BME280;64024;55.820;37.574;2023-06-10T12:13:59;99649.28;;;22.08;25.53
75447;BME280;64024;55.820;37.574;2023-06-10T12:16:24;99645.75;;;22.08;25.77
75447;BME280;64024;55.820;37.574;2023-06-10T12:18:50;99648.19;;;22.04;25.75
75447;BME280;64024;55.820;37.574;2023-06-10T12:21:24;99636.59;;;21.99;25.99
75447;BME280;64024;55.820;37.574;2023-06-10T12:24:04;99631.72;;;21.96;26.08
75447;BME280;64024;55.820;37.574;2023-06-10T12:26:42;99675.53;;;21.93;26.12
75447;BME280;64024;55.820;37.574;2023-06-10T12:29:28;99636.84;;;21.92;26.28
75447;BME280;64024;55.820;37.574;2023-06-10T12:32:02;99649.84;;;21.95;26.20
75447;BME280;64024;55.820;37.574;2023-06-10T12:34:33;99675.81;;;22.01;26.21
75447;BME280;64024;55.820;37.574;2023-06-10T12:37:09;99644.97;;;22.07;26.15
75447;BME280;64024;55.820;37.574;2023-06-10T12:39:39;99621.16;;;22.15;26.29
75447;BME280;64024;55.820;37.574;2023-06-10T12:42:05;99632.50;;;22.22;27.56
75447;BME280;64024;55.820;37.574;2023-06-10T12:44:35;99617.59;;;22.24;28.75
75447;BME280;64024;55.820;37.574;2023-06-10T12:47:11;99611.91;;;22.26;27.67
75447;BME280;64024;55.820;37.574;2023-06-10T12:49:40;99614.34;;;22.27;27.49
75447;BME280;64024;55.820;37.574;2023-06-10T12:52:06;99613.78;;;22.30;27.32
75447;BME280;64024;55.820;37.574;2023-06-10T12:54:34;99614.59;;;22.36;27.25
75447;BME280;64024;55.820;37.574;2023-06-10T12:56:59;99610.72;;;22.52;27.03
75447;BME280;64024;55.820;37.574;2023-06-10T12:59:25;99614.22;;;22.58;27.37
75447;BME280;64024;55.820;37.574;2023-06-10T13:01:51;99607.66;;;22.64;27.23
75447;BME280;64024;55.820;37.574;2023-06-10T13:04:17;99606.56;;;22.70;26.83
75447;BME280;64024;55.820;37.574;2023-06-10T13:06:44;99593.81;;;22.76;26.77
75447;BME280;64024;55.820;37.574;2023-06-10T13:09:09;99623.31;;;22.82;26.67
75447;BME280;64024;55.820;37.574;2023-06-10T13:11:36;99640.94;;;22.90;26.44